Weather at København Vandflyveplads

Public forecast

Using degrees Celsius for public forecast. Weather courtesy of forecast.io.

Closest aviation weather report (METAR) to København Vandflyveplads

Closest report is Copenhagen Kastrup Airport, 4.8 nm (8.9 km) SSE.

2024/05/18 23:20 (retrieved 15 minutes ago)

EKCH 182320Z AUTO 04005KT 010V070 9999 BKN080/// BKN110/// 14/07 Q1013 NOSIG

Closest aviation forecast (TAF) to København Vandflyveplads

Closest forecast is Copenhagen Kastrup Airport, 4.8 nm (8.9 km) SSE.

2024/05/18 18:31 (retrieved 5 hours ago)

TAF EKCH 181702Z 1818/1918 07010KT CAVOK PROB40 1906/1910 SCT050CB BECMG 1909/1911 19008KT TEMPO 1910/1917 SCT050CB